Impacts METAR Board
IDs:

KDEN - Denver Intl, CO, US

Updated at: 1100 UTC 23 Jun 2018
Potential Impact None Slight Moderate High
Time 22/23Z 23/00Z 23/01Z 23/02Z 23/03Z 23/04Z 23/05Z 23/06Z 23/07Z 23/08Z 23/09Z 23/10Z 23/11Z
Temp81 81 79 77 72 63 61 59 59 60 59 60 55
Dewpt40 40 44 44 40 48 49 48 49 49 49 48 47
Altim29.88 29.89 29.90 29.90 29.93 29.99 30.01 30.03 30.04 30.02 30.02 30.00 29.99
VIS10 10 10 10 10 10 10 10 10 10 10 10 10
CIG220 220 150 220 -- -- -- -- -- -- -- -- --
CoverBKNBKNBKNBKNSCTSCTFEWCLRCLRCLRCLRCLRFEW
FltCatVFRVFRVFRVFRVFRVFRVFRVFRVFRVFRVFRVFRVFR
WX--------------------------
WDir1011014011090206070290290300290220
WSpd13 3 9 3 5 7 6 6 8 10 8 7 5
WGst16 -- -- -- -- -- -- -- -- -- -- -- --
Raw hourly METARs
KDEN 222253Z 01013G16KT 10SM SCT100 SCT150 BKN220 27/04 A2988 RMK AO2 TSE36 SLP035 TS DSPTD T02720044
KDEN 222353Z 11003KT 10SM FEW100 SCT150 BKN220 27/04 A2989 RMK AO2 SLP040 VIRGA ALQDS T02720044 10322 20250 51006
KDEN 230053Z 14009KT 10SM SCT100 BKN150 BKN220 26/07 A2990 RMK AO2 RAB28E37 SLP046 P0000 T02610067
KDEN 230153Z 11003KT 10SM FEW100 SCT150 BKN220 25/07 A2990 RMK AO2 SLP047 T02500067
KDEN 230253Z 09005KT 10SM FEW100 SCT150 SCT220 22/04 A2993 RMK AO2 SLP054 60000 T02220044 53012
KDEN 230353Z 02007KT 10SM FEW140 SCT220 17/09 A2999 RMK AO2 SLP081 T01720089
KDEN 230453Z 06006KT 10SM FEW140 FEW220 16/09 A3001 RMK AO2 SLP087 T01610094
KDEN 230553Z 07006KT 10SM CLR 15/09 A3003 RMK AO2 SLP094 60000 T01500089 10278 20150 51029
KDEN 230653Z 29008KT 10SM CLR 15/09 A3004 RMK AO2 SLP089 T01500094 403220128
KDEN 230753Z 29010KT 10SM CLR 16/09 A3002 RMK AO2 SLP082 T01560094
KDEN 230853Z 30008KT 10SM CLR 15/09 A3002 RMK AO2 SLP080 T01500094 58003
KDEN 230953Z 29007KT 10SM CLR 16/09 A3000 RMK AO2 SLP082 T01560089
KDEN 231053Z 22005KT 10SM FEW220 13/08 A2999 RMK AO2 SLP083 T01280083



Page loaded:  11:40 UTC  |   04:40 AM Pacific  |   05:40 AM Mountain  |   06:40 AM Central  |   07:40 AM Eastern

 

ADVISORIES

FORECASTS

FORECASTS

OBSERVATIONS

USER TOOLS

ABOUT US